sensor_id;sensor_type;location;lat;lon;timestamp;P1;durP1;ratioP1;P2;durP2;ratioP2
22967;SDS011;11650;48.106;-1.696;2023-04-03T00:01:15;16.97;;;5.77;;
22967;SDS011;11650;48.106;-1.696;2023-04-03T00:03:41;17.50;;;5.73;;
22967;SDS011;11650;48.106;-1.696;2023-04-03T00:06:07;19.83;;;5.93;;
22967;SDS011;11650;48.106;-1.696;2023-04-03T00:08:35;13.93;;;5.17;;
22967;SDS011;11650;48.106;-1.696;2023-04-03T00:11:02;17.27;;;5.47;;
22967;SDS011;11650;48.106;-1.696;2023-04-03T00:13:28;16.47;;;5.93;;
22967;SDS011;11650;48.106;-1.696;2023-04-03T00:15:54;12.43;;;5.50;;
22967;SDS011;11650;48.106;-1.696;2023-04-03T00:18:20;19.93;;;5.50;;
22967;SDS011;11650;48.106;-1.696;2023-04-03T00:20:46;17.53;;;6.00;;
22967;SDS011;11650;48.106;-1.696;2023-04-03T00:23:12;13.33;;;5.63;;
22967;SDS011;11650;48.106;-1.696;2023-04-03T00:25:38;20.37;;;5.70;;
22967;SDS011;11650;48.106;-1.696;2023-04-03T00:28:04;19.00;;;4.90;;
22967;SDS011;11650;48.106;-1.696;2023-04-03T00:30:30;21.57;;;5.50;;
22967;SDS011;11650;48.106;-1.696;2023-04-03T00:32:56;18.20;;;4.80;;
22967;SDS011;11650;48.106;-1.696;2023-04-03T00:35:22;10.97;;;4.90;;
22967;SDS011;11650;48.106;-1.696;2023-04-03T00:37:50;14.23;;;4.67;;
22967;SDS011;11650;48.106;-1.696;2023-04-03T00:40:17;15.17;;;4.60;;
22967;SDS011;11650;48.106;-1.696;2023-04-03T00:42:45;19.20;;;5.17;;
22967;SDS011;11650;48.106;-1.696;2023-04-03T00:48:05;16.23;;;4.67;;
22967;SDS011;11650;48.106;-1.696;2023-04-03T00:50:35;14.50;;;4.87;;
22967;SDS011;11650;48.106;-1.696;2023-04-03T00:53:03;24.10;;;5.63;;
22967;SDS011;11650;48.106;-1.696;2023-04-03T00:55:31;19.27;;;6.03;;
22967;SDS011;11650;48.106;-1.696;2023-04-03T00:57:58;22.43;;;4.80;;
22967;SDS011;11650;48.106;-1.696;2023-04-03T01:00:25;17.07;;;4.53;;
22967;SDS011;11650;48.106;-1.696;2023-04-03T01:02:52;23.97;;;5.10;;
22967;SDS011;11650;48.106;-1.696;2023-04-03T01:05:17;20.70;;;5.03;;
22967;SDS011;11650;48.106;-1.696;2023-04-03T01:07:45;16.20;;;4.67;;
22967;SDS011;11650;48.106;-1.696;2023-04-03T01:10:13;15.50;;;4.83;;
22967;SDS011;11650;48.106;-1.696;2023-04-03T01:12:41;25.83;;;5.40;;
22967;SDS011;11650;48.106;-1.696;2023-04-03T01:15:11;21.20;;;5.30;;
22967;SDS011;11650;48.106;-1.696;2023-04-03T01:17:46;18.27;;;5.00;;
22967;SDS011;11650;48.106;-1.696;2023-04-03T01:30:53;18.40;;;5.17;;
22967;SDS011;11650;48.106;-1.696;2023-04-03T01:33:40;27.57;;;5.70;;
22967;SDS011;11650;48.106;-1.696;2023-04-03T01:36:06;19.87;;;5.50;;
22967;SDS011;11650;48.106;-1.696;2023-04-03T01:38:38;19.13;;;5.13;;
22967;SDS011;11650;48.106;-1.696;2023-04-03T01:41:03;19.43;;;5.30;;
22967;SDS011;11650;48.106;-1.696;2023-04-03T01:43:29;18.27;;;5.47;;
22967;SDS011;11650;48.106;-1.696;2023-04-03T01:45:55;20.30;;;5.10;;
22967;SDS011;11650;48.106;-1.696;2023-04-03T01:48:20;16.60;;;5.00;;
22967;SDS011;11650;48.106;-1.696;2023-04-03T01:50:46;23.87;;;5.43;;
22967;SDS011;11650;48.106;-1.696;2023-04-03T01:53:12;18.63;;;5.07;;
22967;SDS011;11650;48.106;-1.696;2023-04-03T01:55:38;20.20;;;4.83;;
22967;SDS011;11650;48.106;-1.696;2023-04-03T01:58:03;22.57;;;5.20;;
22967;SDS011;11650;48.106;-1.696;2023-04-03T02:00:29;20.20;;;5.13;;
22967;SDS011;11650;48.106;-1.696;2023-04-03T02:02:55;16.90;;;5.23;;
22967;SDS011;11650;48.106;-1.696;2023-04-03T02:05:21;12.67;;;4.83;;
22967;SDS011;11650;48.106;-1.696;2023-04-03T02:07:47;17.63;;;4.70;;
22967;SDS011;11650;48.106;-1.696;2023-04-03T02:10:13;18.47;;;4.50;;
22967;SDS011;11650;48.106;-1.696;2023-04-03T02:12:39;19.40;;;4.60;;
22967;SDS011;11650;48.106;-1.696;2023-04-03T02:15:05;23.70;;;5.23;;
22967;SDS011;11650;48.106;-1.696;2023-04-03T02:17:31;18.57;;;4.93;;
22967;SDS011;11650;48.106;-1.696;2023-04-03T02:19:57;18.77;;;5.00;;
22967;SDS011;11650;48.106;-1.696;2023-04-03T02:22:22;26.27;;;5.33;;
22967;SDS011;11650;48.106;-1.696;2023-04-03T02:24:48;23.90;;;5.77;;
22967;SDS011;11650;48.106;-1.696;2023-04-03T02:27:14;21.40;;;4.60;;
22967;SDS011;11650;48.106;-1.696;2023-04-03T02:29:39;19.97;;;4.47;;
22967;SDS011;11650;48.106;-1.696;2023-04-03T02:32:05;23.13;;;5.50;;
22967;SDS011;11650;48.106;-1.696;2023-04-03T02:34:31;26.67;;;5.43;;
22967;SDS011;11650;48.106;-1.696;2023-04-03T02:36:56;22.03;;;5.23;;
22967;SDS011;11650;48.106;-1.696;2023-04-03T02:39:22;22.03;;;4.93;;
22967;SDS011;11650;48.106;-1.696;2023-04-03T02:41:48;19.83;;;4.13;;
22967;SDS011;11650;48.106;-1.696;2023-04-03T02:44:13;20.33;;;4.77;;
22967;SDS011;11650;48.106;-1.696;2023-04-03T02:46:39;19.83;;;4.03;;
22967;SDS011;11650;48.106;-1.696;2023-04-03T02:49:05;26.53;;;5.00;;
22967;SDS011;11650;48.106;-1.696;2023-04-03T02:51:31;25.77;;;4.90;;
22967;SDS011;11650;48.106;-1.696;2023-04-03T02:53:57;23.50;;;4.80;;
22967;SDS011;11650;48.106;-1.696;2023-04-03T02:56:23;21.73;;;5.23;;
22967;SDS011;11650;48.106;-1.696;2023-04-03T02:58:49;20.40;;;5.03;;
22967;SDS011;11650;48.106;-1.696;2023-04-03T03:01:15;21.73;;;4.33;;
22967;SDS011;11650;48.106;-1.696;2023-04-03T03:03:40;20.93;;;4.80;;
22967;SDS011;11650;48.106;-1.696;2023-04-03T03:06:07;22.03;;;5.30;;
22967;SDS011;11650;48.106;-1.696;2023-04-03T03:08:34;19.37;;;5.13;;
22967;SDS011;11650;48.106;-1.696;2023-04-03T03:11:00;22.30;;;4.83;;
22967;SDS011;11650;48.106;-1.696;2023-04-03T03:13:26;22.97;;;4.50;;
22967;SDS011;11650;48.106;-1.696;2023-04-03T03:15:52;28.73;;;5.23;;
22967;SDS011;11650;48.106;-1.696;2023-04-03T03:18:17;23.77;;;5.30;;
22967;SDS011;11650;48.106;-1.696;2023-04-03T03:20:43;17.93;;;4.40;;
22967;SDS011;11650;48.106;-1.696;2023-04-03T03:23:09;17.87;;;4.43;;
22967;SDS011;11650;48.106;-1.696;2023-04-03T03:25:39;17.90;;;4.90;;
22967;SDS011;11650;48.106;-1.696;2023-04-03T03:28:05;19.10;;;5.33;;
22967;SDS011;11650;48.106;-1.696;2023-04-03T03:30:31;19.43;;;5.40;;
22967;SDS011;11650;48.106;-1.696;2023-04-03T03:32:57;19.47;;;4.37;;
22967;SDS011;11650;48.106;-1.696;2023-04-03T03:35:23;14.57;;;4.03;;
22967;SDS011;11650;48.106;-1.696;2023-04-03T03:37:48;18.90;;;4.93;;
22967;SDS011;11650;48.106;-1.696;2023-04-03T03:40:14;17.33;;;4.80;;
22967;SDS011;11650;48.106;-1.696;2023-04-03T03:42:40;22.23;;;4.93;;
22967;SDS011;11650;48.106;-1.696;2023-04-03T03:45:06;21.43;;;5.23;;
22967;SDS011;11650;48.106;-1.696;2023-04-03T03:47:32;20.53;;;4.53;;
22967;SDS011;11650;48.106;-1.696;2023-04-03T03:49:58;19.80;;;4.50;;
22967;SDS011;11650;48.106;-1.696;2023-04-03T03:52:23;19.13;;;4.60;;
22967;SDS011;11650;48.106;-1.696;2023-04-03T03:54:49;15.63;;;4.20;;
22967;SDS011;11650;48.106;-1.696;2023-04-03T03:57:15;17.83;;;4.63;;
22967;SDS011;11650;48.106;-1.696;2023-04-03T03:59:41;23.10;;;4.70;;
22967;SDS011;11650;48.106;-1.696;2023-04-03T04:02:07;20.80;;;4.77;;
22967;SDS011;11650;48.106;-1.696;2023-04-03T04:04:33;17.73;;;4.23;;
22967;SDS011;11650;48.106;-1.696;2023-04-03T04:06:59;19.37;;;4.40;;
22967;SDS011;11650;48.106;-1.696;2023-04-03T04:09:25;17.30;;;4.67;;
22967;SDS011;11650;48.106;-1.696;2023-04-03T04:11:51;21.67;;;4.40;;
22967;SDS011;11650;48.106;-1.696;2023-04-03T04:14:17;19.17;;;4.37;;
22967;SDS011;11650;48.106;-1.696;2023-04-03T04:16:45;16.93;;;4.30;;
22967;SDS011;11650;48.106;-1.696;2023-04-03T04:19:11;20.73;;;4.57;;
22967;SDS011;11650;48.106;-1.696;2023-04-03T04:21:38;18.83;;;4.97;;
22967;SDS011;11650;48.106;-1.696;2023-04-03T04:24:04;16.73;;;4.43;;
22967;SDS011;11650;48.106;-1.696;2023-04-03T04:26:30;21.80;;;4.30;;
22967;SDS011;11650;48.106;-1.696;2023-04-03T04:28:56;18.73;;;5.13;;
22967;SDS011;11650;48.106;-1.696;2023-04-03T04:31:22;21.63;;;4.10;;
22967;SDS011;11650;48.106;-1.696;2023-04-03T04:33:48;20.90;;;4.20;;
22967;SDS011;11650;48.106;-1.696;2023-04-03T04:36:13;22.17;;;4.67;;
22967;SDS011;11650;48.106;-1.696;2023-04-03T04:38:40;20.17;;;4.90;;
22967;SDS011;11650;48.106;-1.696;2023-04-03T04:41:06;14.83;;;4.07;;
22967;SDS011;11650;48.106;-1.696;2023-04-03T04:43:32;21.50;;;4.70;;
22967;SDS011;11650;48.106;-1.696;2023-04-03T04:46:01;15.63;;;4.37;;
22967;SDS011;11650;48.106;-1.696;2023-04-03T04:48:28;15.53;;;4.40;;
22967;SDS011;11650;48.106;-1.696;2023-04-03T04:50:54;21.70;;;4.10;;
22967;SDS011;11650;48.106;-1.696;2023-04-03T04:53:20;19.90;;;4.43;;
22967;SDS011;11650;48.106;-1.696;2023-04-03T04:55:45;15.90;;;4.50;;
22967;SDS011;11650;48.106;-1.696;2023-04-03T04:58:11;16.40;;;3.83;;
22967;SDS011;11650;48.106;-1.696;2023-04-03T05:00:37;17.50;;;4.17;;
22967;SDS011;11650;48.106;-1.696;2023-04-03T05:03:02;22.23;;;4.27;;
22967;SDS011;11650;48.106;-1.696;2023-04-03T05:05:28;16.23;;;4.30;;
22967;SDS011;11650;48.106;-1.696;2023-04-03T05:07:53;24.77;;;4.60;;
22967;SDS011;11650;48.106;-1.696;2023-04-03T05:10:19;13.63;;;3.97;;
22967;SDS011;11650;48.106;-1.696;2023-04-03T05:12:45;16.40;;;4.17;;
22967;SDS011;11650;48.106;-1.696;2023-04-03T05:15:11;15.17;;;3.97;;
22967;SDS011;11650;48.106;-1.696;2023-04-03T05:17:37;16.13;;;4.00;;
22967;SDS011;11650;48.106;-1.696;2023-04-03T05:20:03;18.27;;;4.40;;
22967;SDS011;11650;48.106;-1.696;2023-04-03T05:22:30;18.07;;;4.50;;
22967;SDS011;11650;48.106;-1.696;2023-04-03T05:24:56;12.33;;;4.10;;
22967;SDS011;11650;48.106;-1.696;2023-04-03T05:27:22;11.87;;;3.90;;
22967;SDS011;11650;48.106;-1.696;2023-04-03T05:29:49;12.70;;;4.33;;
22967;SDS011;11650;48.106;-1.696;2023-04-03T05:32:15;11.53;;;4.30;;
22967;SDS011;11650;48.106;-1.696;2023-04-03T05:34:41;18.93;;;4.50;;
22967;SDS011;11650;48.106;-1.696;2023-04-03T05:37:07;17.73;;;4.10;;
22967;SDS011;11650;48.106;-1.696;2023-04-03T05:39:32;20.93;;;4.57;;
22967;SDS011;11650;48.106;-1.696;2023-04-03T05:41:58;13.67;;;4.07;;
22967;SDS011;11650;48.106;-1.696;2023-04-03T05:44:24;16.97;;;4.63;;
22967;SDS011;11650;48.106;-1.696;2023-04-03T05:46:50;18.20;;;4.40;;
22967;SDS011;11650;48.106;-1.696;2023-04-03T05:49:16;16.33;;;4.60;;
22967;SDS011;11650;48.106;-1.696;2023-04-03T05:51:41;17.83;;;4.63;;
22967;SDS011;11650;48.106;-1.696;2023-04-03T05:54:16;16.47;;;4.47;;
22967;SDS011;11650;48.106;-1.696;2023-04-03T05:56:48;15.03;;;4.67;;
22967;SDS011;11650;48.106;-1.696;2023-04-03T05:59:15;12.43;;;4.67;;
22967;SDS011;11650;48.106;-1.696;2023-04-03T06:01:41;14.63;;;4.90;;
22967;SDS011;11650;48.106;-1.696;2023-04-03T06:04:06;19.40;;;4.87;;
22967;SDS011;11650;48.106;-1.696;2023-04-03T06:06:50;14.20;;;4.87;;
22967;SDS011;11650;48.106;-1.696;2023-04-03T06:09:19;18.33;;;4.77;;
22967;SDS011;11650;48.106;-1.696;2023-04-03T06:11:46;18.83;;;5.17;;
22967;SDS011;11650;48.106;-1.696;2023-04-03T06:14:12;13.23;;;4.63;;
22967;SDS011;11650;48.106;-1.696;2023-04-03T06:16:37;15.40;;;5.23;;
22967;SDS011;11650;48.106;-1.696;2023-04-03T06:19:04;10.87;;;5.20;;
22967;SDS011;11650;48.106;-1.696;2023-04-03T06:21:31;16.13;;;4.80;;
22967;SDS011;11650;48.106;-1.696;2023-04-03T06:23:56;17.17;;;5.53;;
22967;SDS011;11650;48.106;-1.696;2023-04-03T06:26:22;11.10;;;4.67;;
22967;SDS011;11650;48.106;-1.696;2023-04-03T06:28:48;14.80;;;5.00;;
22967;SDS011;11650;48.106;-1.696;2023-04-03T06:31:14;16.57;;;5.60;;
22967;SDS011;11650;48.106;-1.696;2023-04-03T06:33:40;13.47;;;5.07;;
22967;SDS011;11650;48.106;-1.696;2023-04-03T06:36:05;13.67;;;4.90;;
22967;SDS011;11650;48.106;-1.696;2023-04-03T06:38:33;13.50;;;4.67;;
22967;SDS011;11650;48.106;-1.696;2023-04-03T06:40:59;13.30;;;5.17;;
22967;SDS011;11650;48.106;-1.696;2023-04-03T06:43:25;13.30;;;4.90;;
22967;SDS011;11650;48.106;-1.696;2023-04-03T06:45:51;13.90;;;4.60;;
22967;SDS011;11650;48.106;-1.696;2023-04-03T06:48:16;15.07;;;4.80;;
22967;SDS011;11650;48.106;-1.696;2023-04-03T06:50:42;13.00;;;4.70;;
22967;SDS011;11650;48.106;-1.696;2023-04-03T06:53:08;13.97;;;4.83;;
22967;SDS011;11650;48.106;-1.696;2023-04-03T06:55:34;13.73;;;5.00;;
22967;SDS011;11650;48.106;-1.696;2023-04-03T06:58:00;10.37;;;4.17;;
22967;SDS011;11650;48.106;-1.696;2023-04-03T07:00:27;17.03;;;5.37;;
22967;SDS011;11650;48.106;-1.696;2023-04-03T07:02:53;10.97;;;4.83;;
22967;SDS011;11650;48.106;-1.696;2023-04-03T07:05:18;15.37;;;4.97;;
22967;SDS011;11650;48.106;-1.696;2023-04-03T07:07:44;12.70;;;5.17;;
22967;SDS011;11650;48.106;-1.696;2023-04-03T07:10:10;9.80;;;4.67;;
22967;SDS011;11650;48.106;-1.696;2023-04-03T07:12:36;16.87;;;5.50;;
22967;SDS011;11650;48.106;-1.696;2023-04-03T07:15:03;13.57;;;5.37;;
22967;SDS011;11650;48.106;-1.696;2023-04-03T07:17:33;11.07;;;4.97;;
22967;SDS011;11650;48.106;-1.696;2023-04-03T07:19:59;15.13;;;5.60;;
22967;SDS011;11650;48.106;-1.696;2023-04-03T07:22:24;10.30;;;5.40;;
22967;SDS011;11650;48.106;-1.696;2023-04-03T07:24:50;15.23;;;5.93;;
22967;SDS011;11650;48.106;-1.696;2023-04-03T07:27:16;10.60;;;5.60;;
22967;SDS011;11650;48.106;-1.696;2023-04-03T07:29:42;13.87;;;5.40;;
22967;SDS011;11650;48.106;-1.696;2023-04-03T07:32:09;12.47;;;5.73;;
22967;SDS011;11650;48.106;-1.696;2023-04-03T07:34:36;13.27;;;5.30;;
22967;SDS011;11650;48.106;-1.696;2023-04-03T07:37:02;14.30;;;5.90;;
22967;SDS011;11650;48.106;-1.696;2023-04-03T07:39:28;12.23;;;5.80;;
22967;SDS011;11650;48.106;-1.696;2023-04-03T07:41:54;15.17;;;6.10;;
22967;SDS011;11650;48.106;-1.696;2023-04-03T07:44:23;12.67;;;5.60;;
22967;SDS011;11650;48.106;-1.696;2023-04-03T07:46:49;15.40;;;6.07;;
22967;SDS011;11650;48.106;-1.696;2023-04-03T07:49:16;17.53;;;5.87;;
22967;SDS011;11650;48.106;-1.696;2023-04-03T07:51:43;14.70;;;5.90;;
22967;SDS011;11650;48.106;-1.696;2023-04-03T07:54:09;12.70;;;6.13;;
22967;SDS011;11650;48.106;-1.696;2023-04-03T07:56:36;11.20;;;5.90;;
22967;SDS011;11650;48.106;-1.696;2023-04-03T07:59:02;13.43;;;6.10;;
22967;SDS011;11650;48.106;-1.696;2023-04-03T08:01:28;14.77;;;6.43;;
22967;SDS011;11650;48.106;-1.696;2023-04-03T08:03:57;10.00;;;6.80;;
22967;SDS011;11650;48.106;-1.696;2023-04-03T08:06:23;13.10;;;6.47;;
22967;SDS011;11650;48.106;-1.696;2023-04-03T08:08:48;11.90;;;6.70;;
22967;SDS011;11650;48.106;-1.696;2023-04-03T08:11:14;13.70;;;7.50;;
22967;SDS011;11650;48.106;-1.696;2023-04-03T08:13:39;14.90;;;7.10;;
22967;SDS011;11650;48.106;-1.696;2023-04-03T08:16:10;13.13;;;7.53;;
22967;SDS011;11650;48.106;-1.696;2023-04-03T08:18:43;13.03;;;7.17;;
22967;SDS011;11650;48.106;-1.696;2023-04-03T08:21:09;14.50;;;6.90;;
22967;SDS011;11650;48.106;-1.696;2023-04-03T08:23:36;16.40;;;7.30;;
22967;SDS011;11650;48.106;-1.696;2023-04-03T08:26:06;12.90;;;7.13;;
22967;SDS011;11650;48.106;-1.696;2023-04-03T08:28:37;17.30;;;7.50;;
22967;SDS011;11650;48.106;-1.696;2023-04-03T08:31:07;14.10;;;7.40;;
22967;SDS011;11650;48.106;-1.696;2023-04-03T08:33:36;12.37;;;7.07;;
22967;SDS011;11650;48.106;-1.696;2023-04-03T08:36:05;14.10;;;7.47;;
22967;SDS011;11650;48.106;-1.696;2023-04-03T08:38:32;13.57;;;7.57;;
22967;SDS011;11650;48.106;-1.696;2023-04-03T08:41:09;14.67;;;7.00;;
22967;SDS011;11650;48.106;-1.696;2023-04-03T08:44:18;14.93;;;7.97;;
22967;SDS011;11650;48.106;-1.696;2023-04-03T08:52:18;13.30;;;7.67;;
22967;SDS011;11650;48.106;-1.696;2023-04-03T08:57:41;13.77;;;8.07;;
22967;SDS011;11650;48.106;-1.696;2023-04-03T09:02:43;17.67;;;8.43;;
22967;SDS011;11650;48.106;-1.696;2023-04-03T09:05:21;14.87;;;7.90;;
22967;SDS011;11650;48.106;-1.696;2023-04-03T09:08:04;14.83;;;7.90;;
22967;SDS011;11650;48.106;-1.696;2023-04-03T09:10:38;13.60;;;8.17;;
22967;SDS011;11650;48.106;-1.696;2023-04-03T09:13:08;15.53;;;8.67;;
22967;SDS011;11650;48.106;-1.696;2023-04-03T09:15:57;15.23;;;8.50;;
22967;SDS011;11650;48.106;-1.696;2023-04-03T09:18:25;17.40;;;9.30;;
22967;SDS011;11650;48.106;-1.696;2023-04-03T09:23:30;14.33;;;9.57;;
22967;SDS011;11650;48.106;-1.696;2023-04-03T09:26:07;16.80;;;9.30;;
22967;SDS011;11650;48.106;-1.696;2023-04-03T09:28:41;13.87;;;9.70;;
22967;SDS011;11650;48.106;-1.696;2023-04-03T09:31:41;14.13;;;9.50;;
22967;SDS011;11650;48.106;-1.696;2023-04-03T09:34:13;15.77;;;9.57;;
22967;SDS011;11650;48.106;-1.696;2023-04-03T09:36:50;17.23;;;10.20;;
22967;SDS011;11650;48.106;-1.696;2023-04-03T09:39:19;15.27;;;10.40;;
22967;SDS011;11650;48.106;-1.696;2023-04-03T09:41:57;13.60;;;9.93;;
22967;SDS011;11650;48.106;-1.696;2023-04-03T09:44:26;15.57;;;10.30;;
22967;SDS011;11650;48.106;-1.696;2023-04-03T09:46:55;14.73;;;10.10;;
22967;SDS011;11650;48.106;-1.696;2023-04-03T09:49:21;16.67;;;10.90;;
22967;SDS011;11650;48.106;-1.696;2023-04-03T09:51:46;15.20;;;9.77;;
22967;SDS011;11650;48.106;-1.696;2023-04-03T09:54:32;15.13;;;9.67;;
22967;SDS011;11650;48.106;-1.696;2023-04-03T09:57:12;16.83;;;10.57;;
22967;SDS011;11650;48.106;-1.696;2023-04-03T09:59:46;17.47;;;10.60;;
22967;SDS011;11650;48.106;-1.696;2023-04-03T10:02:33;14.77;;;10.23;;
22967;SDS011;11650;48.106;-1.696;2023-04-03T10:05:05;18.37;;;10.90;;
22967;SDS011;11650;48.106;-1.696;2023-04-03T10:10:43;16.17;;;10.50;;
22967;SDS011;11650;48.106;-1.696;2023-04-03T10:15:43;17.03;;;10.80;;
22967;SDS011;11650;48.106;-1.696;2023-04-03T10:21:52;16.53;;;11.20;;
22967;SDS011;11650;48.106;-1.696;2023-04-03T10:24:36;16.67;;;11.17;;
22967;SDS011;11650;48.106;-1.696;2023-04-03T10:33:28;18.43;;;11.27;;
22967;SDS011;11650;48.106;-1.696;2023-04-03T10:41:30;16.07;;;10.97;;
22967;SDS011;11650;48.106;-1.696;2023-04-03T10:47:08;15.77;;;10.63;;
22967;SDS011;11650;48.106;-1.696;2023-04-03T10:52:43;15.63;;;11.23;;
22967;SDS011;11650;48.106;-1.696;2023-04-03T10:57:52;16.63;;;11.77;;
22967;SDS011;11650;48.106;-1.696;2023-04-03T11:00:42;15.17;;;11.00;;
22967;SDS011;11650;48.106;-1.696;2023-04-03T11:03:53;16.00;;;10.77;;
22967;SDS011;11650;48.106;-1.696;2023-04-03T11:06:02;15.23;;;10.73;;
22967;SDS011;11650;48.106;-1.696;2023-04-03T11:11:25;17.57;;;12.43;;
22967;SDS011;11650;48.106;-1.696;2023-04-03T11:13:56;16.17;;;10.80;;
22967;SDS011;11650;48.106;-1.696;2023-04-03T11:16:29;15.03;;;10.63;;
22967;SDS011;11650;48.106;-1.696;2023-04-03T11:18:59;15.07;;;11.57;;
22967;SDS011;11650;48.106;-1.696;2023-04-03T11:21:37;16.53;;;11.47;;
22967;SDS011;11650;48.106;-1.696;2023-04-03T11:24:13;16.67;;;11.33;;
22967;SDS011;11650;48.106;-1.696;2023-04-03T11:26:47;14.40;;;11.03;;
22967;SDS011;11650;48.106;-1.696;2023-04-03T11:29:17;13.87;;;10.87;;
22967;SDS011;11650;48.106;-1.696;2023-04-03T11:34:31;15.53;;;10.87;;
22967;SDS011;11650;48.106;-1.696;2023-04-03T11:36:59;15.50;;;11.37;;
22967;SDS011;11650;48.106;-1.696;2023-04-03T11:39:33;14.57;;;11.13;;
22967;SDS011;11650;48.106;-1.696;2023-04-03T11:42:37;14.37;;;10.70;;
22967;SDS011;11650;48.106;-1.696;2023-04-03T12:16:22;12.97;;;9.60;;
22967;SDS011;11650;48.106;-1.696;2023-04-03T12:19:01;13.10;;;9.47;;
22967;SDS011;11650;48.106;-1.696;2023-04-03T12:26:48;12.40;;;8.57;;
22967;SDS011;11650;48.106;-1.696;2023-04-03T12:40:42;10.97;;;8.03;;
22967;SDS011;11650;48.106;-1.696;2023-04-03T12:45:52;8.90;;;7.60;;
22967;SDS011;11650;48.106;-1.696;2023-04-03T12:48:25;11.10;;;8.37;;
22967;SDS011;11650;48.106;-1.696;2023-04-03T12:50:53;10.77;;;8.33;;
22967;SDS011;11650;48.106;-1.696;2023-04-03T12:56:18;12.37;;;8.77;;
22967;SDS011;11650;48.106;-1.696;2023-04-03T12:58:44;11.13;;;8.03;;
22967;SDS011;11650;48.106;-1.696;2023-04-03T13:01:11;10.93;;;8.63;;
22967;SDS011;11650;48.106;-1.696;2023-04-03T13:03:40;10.97;;;8.83;;
22967;SDS011;11650;48.106;-1.696;2023-04-03T13:06:14;11.60;;;8.47;;
22967;SDS011;11650;48.106;-1.696;2023-04-03T13:08:55;10.00;;;7.47;;
22967;SDS011;11650;48.106;-1.696;2023-04-03T13:11:23;10.53;;;8.10;;
22967;SDS011;11650;48.106;-1.696;2023-04-03T13:14:04;11.03;;;7.67;;
22967;SDS011;11650;48.106;-1.696;2023-04-03T13:16:39;8.83;;;7.57;;
22967;SDS011;11650;48.106;-1.696;2023-04-03T13:19:06;7.37;;;6.57;;
22967;SDS011;11650;48.106;-1.696;2023-04-03T13:21:41;10.13;;;6.50;;
22967;SDS011;11650;48.106;-1.696;2023-04-03T13:24:09;9.07;;;6.60;;
22967;SDS011;11650;48.106;-1.696;2023-04-03T13:26:35;6.83;;;6.13;;
22967;SDS011;11650;48.106;-1.696;2023-04-03T13:29:03;7.93;;;6.80;;
22967;SDS011;11650;48.106;-1.696;2023-04-03T13:31:33;8.20;;;6.53;;
22967;SDS011;11650;48.106;-1.696;2023-04-03T13:34:07;7.47;;;6.50;;
22967;SDS011;11650;48.106;-1.696;2023-04-03T13:36:43;9.87;;;7.07;;
22967;SDS011;11650;48.106;-1.696;2023-04-03T13:41:46;9.53;;;6.40;;
22967;SDS011;11650;48.106;-1.696;2023-04-03T13:46:48;10.97;;;7.00;;
22967;SDS011;11650;48.106;-1.696;2023-04-03T13:51:54;10.40;;;6.03;;
22967;SDS011;11650;48.106;-1.696;2023-04-03T13:54:24;7.90;;;6.03;;
22967;SDS011;11650;48.106;-1.696;2023-04-03T13:56:55;7.73;;;6.67;;
22967;SDS011;11650;48.106;-1.696;2023-04-03T13:59:32;8.13;;;6.37;;
22967;SDS011;11650;48.106;-1.696;2023-04-03T14:07:18;8.13;;;6.60;;
22967;SDS011;11650;48.106;-1.696;2023-04-03T14:09:45;8.77;;;6.10;;
22967;SDS011;11650;48.106;-1.696;2023-04-03T14:12:15;8.13;;;6.07;;
22967;SDS011;11650;48.106;-1.696;2023-04-03T14:14:51;6.37;;;5.77;;
22967;SDS011;11650;48.106;-1.696;2023-04-03T14:17:21;7.67;;;6.13;;
22967;SDS011;11650;48.106;-1.696;2023-04-03T14:19:49;8.13;;;5.80;;
22967;SDS011;11650;48.106;-1.696;2023-04-03T14:24:47;6.03;;;5.37;;
22967;SDS011;11650;48.106;-1.696;2023-04-03T14:29:47;8.97;;;5.67;;
22967;SDS011;11650;48.106;-1.696;2023-04-03T14:32:16;7.83;;;5.47;;
22967;SDS011;11650;48.106;-1.696;2023-04-03T14:34:42;6.63;;;5.53;;
22967;SDS011;11650;48.106;-1.696;2023-04-03T14:37:10;6.27;;;5.00;;
22967;SDS011;11650;48.106;-1.696;2023-04-03T14:39:38;6.20;;;4.70;;
22967;SDS011;11650;48.106;-1.696;2023-04-03T14:42:04;7.00;;;5.60;;
22967;SDS011;11650;48.106;-1.696;2023-04-03T14:44:30;6.37;;;5.53;;
22967;SDS011;11650;48.106;-1.696;2023-04-03T14:46:55;5.77;;;5.17;;
22967;SDS011;11650;48.106;-1.696;2023-04-03T14:49:23;7.00;;;5.07;;
22967;SDS011;11650;48.106;-1.696;2023-04-03T14:51:51;5.20;;;4.70;;
22967;SDS011;11650;48.106;-1.696;2023-04-03T14:54:18;7.00;;;4.73;;
22967;SDS011;11650;48.106;-1.696;2023-04-03T14:56:50;6.53;;;4.82;;
22967;SDS011;11650;48.106;-1.696;2023-04-03T14:59:16;6.53;;;4.95;;
22967;SDS011;11650;48.106;-1.696;2023-04-03T15:01:45;5.53;;;4.95;;
22967;SDS011;11650;48.106;-1.696;2023-04-03T15:04:14;7.63;;;4.82;;
22967;SDS011;11650;48.106;-1.696;2023-04-03T15:06:43;5.72;;;5.13;;
22967;SDS011;11650;48.106;-1.696;2023-04-03T15:09:20;6.97;;;4.53;;
22967;SDS011;11650;48.106;-1.696;2023-04-03T15:11:51;6.67;;;4.77;;
22967;SDS011;11650;48.106;-1.696;2023-04-03T15:14:18;6.95;;;4.72;;
22967;SDS011;11650;48.106;-1.696;2023-04-03T15:16:44;6.60;;;4.68;;
22967;SDS011;11650;48.106;-1.696;2023-04-03T15:19:10;5.25;;;4.75;;
22967;SDS011;11650;48.106;-1.696;2023-04-03T15:21:37;6.57;;;4.72;;
22967;SDS011;11650;48.106;-1.696;2023-04-03T15:24:03;8.77;;;4.97;;
22967;SDS011;11650;48.106;-1.696;2023-04-03T15:26:29;6.32;;;5.43;;
22967;SDS011;11650;48.106;-1.696;2023-04-03T15:28:55;5.85;;;4.78;;
22967;SDS011;11650;48.106;-1.696;2023-04-03T15:31:21;5.07;;;4.57;;
22967;SDS011;11650;48.106;-1.696;2023-04-03T15:33:46;6.78;;;4.78;;
22967;SDS011;11650;48.106;-1.696;2023-04-03T15:36:12;6.55;;;5.47;;
22967;SDS011;11650;48.106;-1.696;2023-04-03T15:38:37;5.53;;;4.90;;
22967;SDS011;11650;48.106;-1.696;2023-04-03T15:41:03;6.15;;;4.97;;
22967;SDS011;11650;48.106;-1.696;2023-04-03T15:43:30;5.35;;;4.32;;
22967;SDS011;11650;48.106;-1.696;2023-04-03T15:45:56;5.97;;;4.82;;
22967;SDS011;11650;48.106;-1.696;2023-04-03T15:48:23;5.38;;;4.50;;
22967;SDS011;11650;48.106;-1.696;2023-04-03T15:50:48;5.35;;;4.65;;
22967;SDS011;11650;48.106;-1.696;2023-04-03T15:53:14;5.68;;;4.95;;
22967;SDS011;11650;48.106;-1.696;2023-04-03T15:55:39;5.70;;;4.75;;
22967;SDS011;11650;48.106;-1.696;2023-04-03T15:58:06;5.95;;;4.30;;
22967;SDS011;11650;48.106;-1.696;2023-04-03T16:00:32;6.80;;;5.05;;
22967;SDS011;11650;48.106;-1.696;2023-04-03T16:03:04;5.00;;;4.50;;
22967;SDS011;11650;48.106;-1.696;2023-04-03T16:05:35;6.70;;;5.05;;
22967;SDS011;11650;48.106;-1.696;2023-04-03T16:08:03;5.95;;;4.40;;
22967;SDS011;11650;48.106;-1.696;2023-04-03T16:10:30;5.50;;;4.57;;
22967;SDS011;11650;48.106;-1.696;2023-04-03T16:12:56;5.20;;;4.22;;
22967;SDS011;11650;48.106;-1.696;2023-04-03T16:15:22;5.43;;;4.78;;
22967;SDS011;11650;48.106;-1.696;2023-04-03T16:17:49;5.30;;;4.30;;
22967;SDS011;11650;48.106;-1.696;2023-04-03T16:20:15;5.88;;;4.40;;
22967;SDS011;11650;48.106;-1.696;2023-04-03T16:22:43;4.85;;;4.10;;
22967;SDS011;11650;48.106;-1.696;2023-04-03T16:25:09;6.45;;;4.20;;
22967;SDS011;11650;48.106;-1.696;2023-04-03T16:27:35;5.70;;;4.32;;
22967;SDS011;11650;48.106;-1.696;2023-04-03T16:30:01;5.85;;;4.97;;
22967;SDS011;11650;48.106;-1.696;2023-04-03T16:32:29;5.25;;;4.63;;
22967;SDS011;11650;48.106;-1.696;2023-04-03T16:34:56;6.70;;;4.70;;
22967;SDS011;11650;48.106;-1.696;2023-04-03T16:37:22;5.10;;;4.60;;
22967;SDS011;11650;48.106;-1.696;2023-04-03T16:39:48;6.82;;;5.00;;
22967;SDS011;11650;48.106;-1.696;2023-04-03T16:42:14;5.35;;;4.85;;
22967;SDS011;11650;48.106;-1.696;2023-04-03T16:44:40;5.75;;;4.88;;